createdAt,value
2017-11-15T00:01:00.952Z,67.87
2017-11-15T00:03:28.715Z,67.42
2017-11-15T00:05:56.274Z,68.14
2017-11-15T00:08:23.868Z,67.95
2017-11-15T00:10:51.780Z,67.52
2017-11-15T00:13:19.291Z,67.39
2017-11-15T00:15:46.860Z,68.79
2017-11-15T00:18:14.582Z,68.97
2017-11-15T00:20:42.099Z,68.45
2017-11-15T00:23:09.616Z,68.65
2017-11-15T00:25:37.361Z,67.91
2017-11-15T00:28:04.922Z,67.33
2017-11-15T00:30:32.480Z,67.92
2017-11-15T00:33:00.035Z,67.67
2017-11-15T00:35:27.547Z,68.25
2017-11-15T00:37:55.058Z,68.68
2017-11-15T00:40:22.616Z,69.36
2017-11-15T00:42:50.127Z,68.83
2017-11-15T00:45:17.673Z,67.79
2017-11-15T00:47:45.335Z,68.49
2017-11-15T00:50:12.855Z,69.56
2017-11-15T00:52:40.411Z,68.72
2017-11-15T00:55:08.376Z,67.61
2017-11-15T00:57:35.938Z,67.48
2017-11-15T01:00:03.496Z,68.39
2017-11-15T01:02:31.262Z,67.58
2017-11-15T01:04:58.820Z,66.42
2017-11-15T01:07:26.380Z,66.37
2017-11-15T01:09:54.142Z,65.78
2017-11-15T01:12:21.658Z,66.50
2017-11-15T01:14:49.179Z,66.33
2017-11-15T01:17:16.731Z,66.71
2017-11-15T01:19:44.276Z,66.76
2017-11-15T01:22:11.835Z,66.54
2017-11-15T01:24:39.575Z,66.11
2017-11-15T01:27:07.107Z,66.06
2017-11-15T01:29:34.619Z,66.05
2017-11-15T01:32:02.388Z,65.96
2017-11-15T01:34:30.244Z,66.66
2017-11-15T01:36:57.804Z,65.63
2017-11-15T01:39:25.468Z,66.43
2017-11-15T01:41:53.025Z,68.15
2017-11-15T01:44:20.584Z,68.07
2017-11-15T01:46:48.165Z,65.84
2017-11-15T01:49:15.688Z,65.12
2017-11-15T01:51:43.203Z,67.05
2017-11-15T01:54:10.847Z,66.59
2017-11-15T01:56:39.331Z,65.67
2017-11-15T01:59:06.843Z,66.05
2017-11-15T02:01:38.502Z,65.34
2017-11-15T02:04:06.019Z,64.58
2017-11-15T02:06:33.531Z,65.12
2017-11-15T02:09:01.396Z,66.20
2017-11-15T02:11:28.906Z,65.58
2017-11-15T02:13:56.435Z,65.55
2017-11-15T02:16:24.278Z,64.97
2017-11-15T02:18:51.787Z,64.21
2017-11-15T02:21:19.307Z,64.13
2017-11-15T02:23:47.066Z,64.38
2017-11-15T02:26:14.591Z,65.08
2017-11-15T02:28:42.107Z,65.28
2017-11-15T02:31:09.838Z,64.76
2017-11-15T02:33:37.396Z,65.19
2017-11-15T02:36:04.907Z,65.36
2017-11-15T02:38:32.760Z,65.45
2017-11-15T02:41:00.291Z,64.70
2017-11-15T02:43:27.807Z,64.67
2017-11-15T02:45:55.499Z,64.77
2017-11-15T02:48:23.010Z,64.95
2017-11-15T02:50:50.534Z,66.15
2017-11-15T02:53:18.261Z,65.29
2017-11-15T02:55:45.776Z,64.96
2017-11-15T02:58:13.304Z,64.85
2017-11-15T03:00:40.959Z,65.15
2017-11-15T03:03:08.532Z,64.84
2017-11-15T03:05:36.074Z,64.52
2017-11-15T03:08:03.813Z,64.41
2017-11-15T03:10:31.323Z,65.19
2017-11-15T03:12:58.847Z,65.57
2017-11-15T03:15:26.412Z,65.69
2017-11-15T03:17:53.927Z,67.06
2017-11-15T03:20:21.443Z,65.98
2017-11-15T03:22:49.170Z,65.49
2017-11-15T03:25:16.686Z,65.26
2017-11-15T03:27:44.204Z,65.30
2017-11-15T03:30:11.846Z,65.07
2017-11-15T03:32:39.362Z,65.18
2017-11-15T03:35:06.907Z,65.07
2017-11-15T03:37:34.603Z,65.50
2017-11-15T03:40:02.119Z,65.61
2017-11-15T03:42:29.635Z,65.54
2017-11-15T03:44:57.449Z,65.74
2017-11-15T03:47:25.010Z,65.77
2017-11-15T03:49:52.523Z,66.28
2017-11-15T03:52:20.108Z,67.58
2017-11-15T03:54:47.619Z,67.74
2017-11-15T03:57:15.136Z,68.09
2017-11-15T03:59:42.886Z,68.27
2017-11-15T04:02:10.398Z,67.62
2017-11-15T04:04:37.910Z,67.75
2017-11-15T04:07:05.742Z,68.40
2017-11-15T04:09:33.255Z,68.04
2017-11-15T04:12:00.767Z,68.17
2017-11-15T04:14:28.342Z,69.29
2017-11-15T04:16:55.856Z,69.25
2017-11-15T04:19:23.377Z,68.92
2017-11-15T04:21:50.927Z,67.71
2017-11-15T04:24:18.478Z,68.40
2017-11-15T04:26:46.040Z,67.62
2017-11-15T04:29:13.653Z,67.81
2017-11-15T04:31:41.178Z,67.76
2017-11-15T04:34:08.704Z,68.29
2017-11-15T04:36:36.452Z,68.51
2017-11-15T04:39:03.967Z,68.11
2017-11-15T04:41:31.492Z,68.33
2017-11-15T04:43:59.068Z,67.54
2017-11-15T04:46:26.625Z,66.43
2017-11-15T04:48:54.169Z,66.92
2017-11-15T04:51:21.935Z,67.47
2017-11-15T04:53:49.492Z,66.06
2017-11-15T04:56:17.066Z,66.38
2017-11-15T04:58:44.790Z,66.25
2017-11-15T05:01:12.313Z,66.08
2017-11-15T05:03:39.884Z,66.41
2017-11-15T05:06:07.619Z,67.42
2017-11-15T05:08:35.130Z,66.90
2017-11-15T05:11:02.650Z,67.82
2017-11-15T05:13:30.212Z,67.51
2017-11-15T05:15:57.726Z,68.16
2017-11-15T05:18:25.239Z,67.14
2017-11-15T05:20:52.931Z,67.67
2017-11-15T05:23:20.455Z,66.81
2017-11-15T05:25:47.996Z,66.99
2017-11-15T05:28:15.565Z,66.44
2017-11-15T05:30:43.086Z,65.73
2017-11-15T05:33:11.507Z,65.48
2017-11-15T05:35:39.298Z,64.63
2017-11-15T05:38:06.811Z,64.58
2017-11-15T05:40:34.327Z,64.75
2017-11-15T05:43:01.917Z,63.81
2017-11-15T05:45:29.446Z,63.84
2017-11-15T05:47:56.976Z,64.78
2017-11-15T05:50:24.632Z,64.40
2017-11-15T05:52:52.148Z,64.15
2017-11-15T05:55:19.698Z,64.78
2017-11-15T05:57:47.674Z,65.09
2017-11-15T06:00:15.227Z,64.79
2017-11-15T06:02:42.786Z,65.67
2017-11-15T06:05:10.548Z,65.60
2017-11-15T06:07:38.110Z,65.70
2017-11-15T06:10:05.710Z,65.48
2017-11-15T06:12:33.427Z,65.21
2017-11-15T06:15:01.017Z,65.58
2017-11-15T06:17:28.631Z,65.69
2017-11-15T06:19:56.327Z,65.19
2017-11-15T06:22:23.982Z,64.79
2017-11-15T06:24:51.409Z,64.92
2017-11-15T06:27:19.109Z,65.42
2017-11-15T06:29:46.603Z,66.19
2017-11-15T06:32:14.125Z,67.14
2017-11-15T06:34:41.844Z,66.95
2017-11-15T06:37:09.361Z,67.16
2017-11-15T06:39:36.878Z,66.22
2017-11-15T06:42:04.753Z,66.18
2017-11-15T06:44:32.623Z,65.64
2017-11-15T06:47:00.178Z,66.63
2017-11-15T06:49:27.783Z,66.54
2017-11-15T06:51:55.295Z,64.83
2017-11-15T06:54:22.806Z,64.20
2017-11-15T06:56:50.366Z,64.46
2017-11-15T06:59:17.891Z,65.11
2017-11-15T07:01:45.415Z,64.94
2017-11-15T07:04:13.031Z,64.32
2017-11-15T07:06:40.542Z,63.64
2017-11-15T07:09:08.125Z,62.69
2017-11-15T07:11:35.686Z,62.34
2017-11-15T07:14:03.226Z,62.55
2017-11-15T07:16:30.795Z,62.39
2017-11-15T07:18:58.367Z,61.77
2017-11-15T07:21:25.883Z,61.43
2017-11-15T07:23:53.519Z,61.57
2017-11-15T07:26:21.148Z,61.47
2017-11-15T07:28:48.695Z,60.93
2017-11-15T07:31:16.244Z,60.70
2017-11-15T07:33:43.791Z,60.35
2017-11-15T07:36:11.361Z,60.60
2017-11-15T07:38:38.919Z,60.34
2017-11-15T07:41:06.488Z,60.56
2017-11-15T07:43:34.003Z,60.19
2017-11-15T07:46:01.522Z,59.84
2017-11-15T07:48:29.072Z,59.95
2017-11-15T07:50:56.596Z,60.64
2017-11-15T07:53:24.115Z,60.72
2017-11-15T07:55:51.731Z,60.55
2017-11-15T07:58:19.297Z,60.52
2017-11-15T08:00:46.857Z,60.40
2017-11-15T08:03:14.407Z,59.67
2017-11-15T08:05:41.967Z,59.26
2017-11-15T08:08:09.527Z,58.98
2017-11-15T08:10:37.291Z,58.28
2017-11-15T08:13:04.849Z,58.28
2017-11-15T08:15:32.407Z,58.48
2017-11-15T08:18:00.099Z,58.22
2017-11-15T08:20:27.637Z,58.32
2017-11-15T08:22:55.187Z,58.28
2017-11-15T08:25:22.952Z,57.98
2017-11-15T08:27:50.512Z,57.39
2017-11-15T08:30:18.060Z,57.57
2017-11-15T08:32:45.833Z,57.82
2017-11-15T08:35:13.351Z,57.19
2017-11-15T08:37:40.872Z,56.77
2017-11-15T08:40:08.828Z,56.94
2017-11-15T08:42:36.378Z,57.08
2017-11-15T08:45:03.903Z,56.51
2017-11-15T08:47:31.885Z,56.12
2017-11-15T08:49:59.407Z,55.77
2017-11-15T08:52:26.927Z,55.47
2017-11-15T08:54:54.684Z,54.27
2017-11-15T08:57:22.243Z,54.01
2017-11-15T08:59:49.805Z,53.34
2017-11-15T09:02:17.567Z,53.74
2017-11-15T09:04:45.126Z,52.74
2017-11-15T09:07:12.644Z,51.48
2017-11-15T09:09:40.346Z,51.24
2017-11-15T09:12:07.906Z,41.75
2017-11-15T09:14:36.186Z,33.07
2017-11-15T09:17:03.919Z,27.97
2017-11-15T09:19:31.445Z,24.77
2017-11-15T09:21:58.960Z,23.91
2017-11-15T09:24:26.543Z,23.79
2017-11-15T09:26:54.069Z,23.62
2017-11-15T09:29:21.660Z,21.52
2017-11-15T09:31:49.229Z,19.70
2017-11-15T09:34:16.799Z,20.08
2017-11-15T09:36:44.318Z,18.59
2017-11-15T09:39:12.223Z,18.03
2017-11-15T09:41:39.743Z,17.67
2017-11-15T09:44:07.305Z,18.70
2017-11-15T09:46:34.956Z,18.76
2017-11-15T09:49:02.521Z,16.97
2017-11-15T09:51:30.050Z,16.03
2017-11-15T09:53:58.048Z,15.74
2017-11-15T09:56:25.607Z,15.44
2017-11-15T09:58:53.133Z,14.91
2017-11-15T10:01:20.932Z,15.50
2017-11-15T10:03:48.490Z,15.75
2017-11-15T10:06:16.019Z,14.63
2017-11-15T10:08:43.800Z,15.40
2017-11-15T10:11:11.317Z,15.82
2017-11-15T10:13:38.857Z,15.34
2017-11-15T10:16:06.679Z,15.53
2017-11-15T10:18:34.256Z,14.35
2017-11-15T10:21:01.783Z,13.29
2017-11-15T10:23:29.391Z,14.20
2017-11-15T10:25:56.931Z,13.80
2017-11-15T10:28:24.493Z,14.82
2017-11-15T10:30:52.457Z,13.24
2017-11-15T10:33:20.119Z,13.37
2017-11-15T10:35:47.679Z,13.20
2017-11-15T10:38:15.252Z,12.71
2017-11-15T10:40:42.788Z,11.47
2017-11-15T10:43:10.356Z,10.88
2017-11-15T10:45:38.095Z,10.84
2017-11-15T10:48:08.544Z,10.54
2017-11-15T10:50:36.063Z,11.72
2017-11-15T10:53:03.607Z,10.41
2017-11-15T10:55:31.172Z,9.48
2017-11-15T10:57:58.724Z,10.15
2017-11-15T11:00:32.507Z,10.78
2017-11-15T11:03:00.043Z,12.23
2017-11-15T11:05:27.603Z,12.10
2017-11-15T11:07:55.157Z,13.46
2017-11-15T11:10:22.677Z,12.26
2017-11-15T11:12:50.196Z,11.23
2017-11-15T11:15:17.941Z,13.39
2017-11-15T11:17:45.501Z,12.38
2017-11-15T11:20:13.059Z,14.04
2017-11-15T11:22:40.625Z,12.37
2017-11-15T11:25:08.149Z,12.06
2017-11-15T11:27:35.669Z,11.93
2017-11-15T11:30:03.399Z,12.17
2017-11-15T11:32:30.966Z,12.69
2017-11-15T11:34:58.519Z,12.52
2017-11-15T11:37:26.105Z,11.98
2017-11-15T11:39:53.638Z,12.55
2017-11-15T11:42:21.194Z,11.99
2017-11-15T11:44:48.958Z,11.61
2017-11-15T11:47:16.520Z,11.11
2017-11-15T11:49:44.093Z,11.44
2017-11-15T11:52:11.942Z,11.52
2017-11-15T11:54:39.462Z,10.93
2017-11-15T11:57:06.978Z,9.49
2017-11-15T11:59:34.536Z,10.22
2017-11-15T12:02:02.059Z,10.32
2017-11-15T12:04:29.584Z,9.13
2017-11-15T12:06:57.243Z,9.71
2017-11-15T12:09:24.764Z,10.93
2017-11-15T12:11:52.311Z,11.40
2017-11-15T12:14:19.882Z,10.83
2017-11-15T12:16:47.451Z,14.78
2017-11-15T12:19:14.988Z,20.48
2017-11-15T12:21:42.578Z,24.30
2017-11-15T12:24:10.111Z,26.71
2017-11-15T12:26:37.635Z,29.57
2017-11-15T12:29:05.328Z,30.86
2017-11-15T12:31:32.888Z,32.51
2017-11-15T12:34:00.416Z,33.09
2017-11-15T12:36:28.005Z,34.35
2017-11-15T12:38:55.568Z,35.15
2017-11-15T12:41:23.120Z,36.26
2017-11-15T12:43:50.824Z,36.76
2017-11-15T12:46:18.353Z,38.10
2017-11-15T12:48:45.880Z,39.13
2017-11-15T12:51:13.573Z,39.06
2017-11-15T12:53:41.103Z,38.58
2017-11-15T12:56:08.619Z,40.08
2017-11-15T12:58:36.446Z,39.60
2017-11-15T13:01:04.008Z,41.29
2017-11-15T13:03:31.563Z,40.76
2017-11-15T13:05:59.430Z,40.57
2017-11-15T13:08:26.952Z,40.04
2017-11-15T13:10:54.475Z,40.45
2017-11-15T13:13:22.370Z,40.64
2017-11-15T13:15:49.887Z,40.42
2017-11-15T13:18:17.430Z,40.22
2017-11-15T13:20:46.224Z,41.06
2017-11-15T13:23:13.778Z,40.68
2017-11-15T13:25:41.345Z,40.83
2017-11-15T13:28:08.896Z,41.45
2017-11-15T13:30:36.457Z,41.80
2017-11-15T13:33:04.015Z,42.66
2017-11-15T13:35:31.779Z,40.77
2017-11-15T13:37:59.339Z,40.81
2017-11-15T13:40:26.864Z,40.36
2017-11-15T13:42:54.661Z,38.93
2017-11-15T13:45:22.188Z,38.25
2017-11-15T13:47:49.744Z,39.16
2017-11-15T13:50:17.323Z,40.00
2017-11-15T13:52:44.999Z,39.61
2017-11-15T13:55:12.558Z,39.75
2017-11-15T13:57:40.423Z,40.89
2017-11-15T14:00:07.999Z,40.60
2017-11-15T14:02:35.519Z,42.47
2017-11-15T14:05:03.103Z,42.24
2017-11-15T14:07:30.684Z,43.98
2017-11-15T14:09:58.219Z,43.72
2017-11-15T14:12:26.187Z,43.43
2017-11-15T14:14:53.745Z,43.91
2017-11-15T14:17:21.268Z,43.54
2017-11-15T14:19:48.825Z,43.94
2017-11-15T14:22:16.345Z,44.47
2017-11-15T14:24:43.867Z,43.12
2017-11-15T14:27:11.738Z,44.16
2017-11-15T14:29:39.264Z,43.36
2017-11-15T14:32:06.784Z,43.70
2017-11-15T14:34:34.529Z,43.41
2017-11-15T14:37:02.086Z,45.14
2017-11-15T14:39:30.057Z,46.23
2017-11-15T14:41:57.802Z,45.56
2017-11-15T14:44:25.332Z,46.57
2017-11-15T14:46:52.855Z,45.82
2017-11-15T14:49:20.702Z,45.73
2017-11-15T14:51:48.257Z,46.21
2017-11-15T14:54:15.959Z,46.77
2017-11-15T14:56:43.704Z,46.38
2017-11-15T14:59:11.257Z,46.47
2017-11-15T15:01:38.814Z,47.04
2017-11-15T15:04:07.078Z,47.62
2017-11-15T15:06:34.649Z,47.43
2017-11-15T15:09:02.401Z,47.42
2017-11-15T15:11:30.251Z,47.95
2017-11-15T15:13:57.772Z,47.77
2017-11-15T15:16:25.309Z,47.81
2017-11-15T15:18:52.944Z,48.21
2017-11-15T15:21:20.605Z,48.35
2017-11-15T15:23:48.171Z,48.54
2017-11-15T15:26:15.936Z,48.95
2017-11-15T15:28:43.511Z,49.28
2017-11-15T15:31:11.148Z,49.64
2017-11-15T15:33:38.890Z,50.07
2017-11-15T15:36:06.407Z,50.42
2017-11-15T15:38:34.008Z,50.74
2017-11-15T15:41:01.620Z,51.03
2017-11-15T15:43:29.149Z,51.40
2017-11-15T15:45:56.726Z,51.84
2017-11-15T15:48:24.471Z,52.15
2017-11-15T15:50:52.032Z,52.12
2017-11-15T15:53:19.590Z,52.48
2017-11-15T15:55:47.457Z,52.99
2017-11-15T15:58:15.016Z,53.43
2017-11-15T16:00:42.573Z,53.90
2017-11-15T16:03:10.422Z,54.35
2017-11-15T16:05:37.971Z,54.39
2017-11-15T16:08:05.567Z,54.64
2017-11-15T16:10:33.383Z,55.11
2017-11-15T16:13:00.923Z,55.35
2017-11-15T16:15:28.458Z,55.57
2017-11-15T16:17:56.205Z,55.84
2017-11-15T16:20:23.762Z,56.00
2017-11-15T16:22:51.323Z,56.29
2017-11-15T16:25:19.290Z,56.57
2017-11-15T16:27:46.952Z,57.06
2017-11-15T16:30:14.539Z,57.05
2017-11-15T16:32:42.294Z,58.62
2017-11-15T16:35:09.936Z,57.79
2017-11-15T16:37:37.700Z,57.56
2017-11-15T16:40:05.371Z,57.98
2017-11-15T16:42:32.887Z,58.94
2017-11-15T16:45:00.402Z,59.75
2017-11-15T16:47:28.285Z,59.49
2017-11-15T16:49:56.008Z,60.66
2017-11-15T16:52:23.568Z,60.15
2017-11-15T16:54:51.332Z,60.03
2017-11-15T16:57:18.850Z,60.12
2017-11-15T16:59:46.453Z,60.80
2017-11-15T17:02:14.382Z,60.75
2017-11-15T17:04:42.082Z,60.89
2017-11-15T17:07:09.671Z,61.18
2017-11-15T17:09:37.505Z,61.09
2017-11-15T17:12:05.968Z,61.36
2017-11-15T17:14:33.646Z,61.58
2017-11-15T17:17:01.615Z,61.74
2017-11-15T17:19:29.485Z,61.42
2017-11-15T17:21:57.263Z,61.65
2017-11-15T17:24:25.102Z,61.73
2017-11-15T17:26:54.604Z,61.62
2017-11-15T17:29:22.388Z,61.69
2017-11-15T17:31:50.757Z,61.77
2017-11-15T17:34:19.659Z,62.34
2017-11-15T17:36:47.515Z,62.15
2017-11-15T17:39:17.088Z,62.05
2017-11-15T17:41:44.989Z,62.46
2017-11-15T17:44:12.790Z,62.39
2017-11-15T17:46:40.769Z,62.14
2017-11-15T17:49:08.693Z,62.22
2017-11-15T17:51:36.367Z,62.14
2017-11-15T17:54:04.284Z,62.37
2017-11-15T17:56:32.377Z,62.48
2017-11-15T17:59:00.175Z,62.43
2017-11-15T18:01:28.650Z,62.60
2017-11-15T18:03:56.463Z,62.64
2017-11-15T18:06:24.530Z,62.72
2017-11-15T18:08:53.224Z,62.77
2017-11-15T18:11:20.763Z,62.83
2017-11-15T18:13:48.766Z,62.93
2017-11-15T18:16:16.558Z,63.07
2017-11-15T18:18:44.414Z,63.34
2017-11-15T18:21:13.004Z,63.18
2017-11-15T18:23:41.084Z,63.31
2017-11-15T18:26:08.735Z,63.16
2017-11-15T18:28:36.605Z,63.28
2017-11-15T18:31:04.478Z,63.24
2017-11-15T18:33:32.127Z,63.40
2017-11-15T18:35:59.991Z,63.28
2017-11-15T18:38:27.981Z,63.07
2017-11-15T18:40:55.737Z,62.76
2017-11-15T18:43:24.013Z,62.85
2017-11-15T18:45:51.993Z,62.98
2017-11-15T18:48:19.657Z,62.84
2017-11-15T18:50:47.412Z,63.18
2017-11-15T18:53:15.266Z,63.05
2017-11-15T18:55:42.879Z,62.94
2017-11-15T18:58:10.584Z,63.15
2017-11-15T19:00:38.655Z,62.99
2017-11-15T19:03:06.826Z,63.15
2017-11-15T19:05:34.590Z,63.14
2017-11-15T19:08:02.355Z,62.84
2017-11-15T19:10:30.221Z,62.59
2017-11-15T19:12:58.000Z,62.85
2017-11-15T19:15:26.480Z,62.74
2017-11-15T19:17:54.286Z,62.42
2017-11-15T19:20:21.995Z,62.35
2017-11-15T19:22:50.176Z,62.09
2017-11-15T19:25:17.948Z,62.16
2017-11-15T19:27:46.879Z,62.29
2017-11-15T19:30:14.704Z,62.30
2017-11-15T19:32:42.464Z,62.63
2017-11-15T19:35:10.831Z,62.96
2017-11-15T19:37:38.717Z,63.19
2017-11-15T19:40:06.582Z,63.44
2017-11-15T19:42:34.532Z,63.31
2017-11-15T19:45:03.545Z,63.17
2017-11-15T19:47:31.495Z,63.40
2017-11-15T19:49:59.729Z,63.52
2017-11-15T19:52:29.131Z,63.32
2017-11-15T19:54:57.140Z,63.64
2017-11-15T19:57:25.014Z,63.70
2017-11-15T19:59:58.109Z,63.88
2017-11-15T20:02:25.872Z,64.04
2017-11-15T20:04:54.308Z,64.09
2017-11-15T20:07:22.205Z,64.15
2017-11-15T20:09:50.088Z,64.17
2017-11-15T20:12:19.476Z,64.32
2017-11-15T20:14:47.345Z,64.37
2017-11-15T20:17:15.207Z,64.27
2017-11-15T20:19:43.291Z,63.75
2017-11-15T20:22:11.699Z,63.34
2017-11-15T20:24:39.445Z,62.94
2017-11-15T20:27:08.515Z,62.85
2017-11-15T20:29:36.280Z,62.47
2017-11-15T20:32:04.049Z,62.82
2017-11-15T20:34:32.079Z,62.86
2017-11-15T20:36:59.774Z,62.86
2017-11-15T20:39:27.553Z,63.12
2017-11-15T20:41:55.419Z,63.17
2017-11-15T20:44:23.185Z,63.27
2017-11-15T20:46:50.961Z,63.23
2017-11-15T20:49:19.215Z,63.09
2017-11-15T20:51:47.076Z,63.31
2017-11-15T20:54:14.942Z,63.24
2017-11-15T20:56:43.219Z,63.46
2017-11-15T20:59:11.191Z,63.37
2017-11-15T21:01:38.971Z,63.55
2017-11-15T21:04:06.941Z,63.51
2017-11-15T21:06:34.716Z,63.54
2017-11-15T21:09:02.558Z,63.58
2017-11-15T21:11:30.536Z,63.63
2017-11-15T21:13:58.389Z,63.65
2017-11-15T21:16:26.576Z,63.50
2017-11-15T21:18:54.532Z,63.60
2017-11-15T21:21:22.183Z,63.54
2017-11-15T21:23:50.157Z,64.04
2017-11-15T21:26:18.024Z,64.66
2017-11-15T21:28:46.004Z,64.44
2017-11-15T21:31:13.873Z,64.75
2017-11-15T21:33:42.099Z,64.36
2017-11-15T21:36:09.795Z,64.95
2017-11-15T21:38:37.870Z,64.91
2017-11-15T21:41:05.945Z,64.08
2017-11-15T21:43:33.688Z,64.14
2017-11-15T21:46:01.488Z,64.02
2017-11-15T21:48:29.946Z,64.12
2017-11-15T21:50:57.711Z,64.27
2017-11-15T21:53:25.333Z,64.61
2017-11-15T21:55:53.308Z,64.43
2017-11-15T21:58:21.002Z,63.60
2017-11-15T22:00:48.557Z,63.35
2017-11-15T22:03:16.845Z,62.96
2017-11-15T22:05:44.691Z,63.66
2017-11-15T22:08:12.466Z,62.86
2017-11-15T22:10:40.442Z,62.56
2017-11-15T22:13:08.067Z,62.79
2017-11-15T22:15:35.760Z,62.93
2017-11-15T22:18:03.733Z,63.11
2017-11-15T22:20:31.599Z,62.94
2017-11-15T22:22:59.871Z,62.81
2017-11-15T22:25:28.147Z,62.84
2017-11-15T22:27:55.775Z,62.56
2017-11-15T22:30:23.368Z,62.25
2017-11-15T22:32:51.130Z,62.61
2017-11-15T22:35:18.691Z,62.51
2017-11-15T22:37:46.270Z,62.68
2017-11-15T22:40:14.114Z,62.73
2017-11-15T22:42:41.878Z,63.07
2017-11-15T22:45:09.451Z,63.05
2017-11-15T22:47:37.356Z,62.81
2017-11-15T22:50:04.887Z,63.00
2017-11-15T22:52:32.421Z,62.94
2017-11-15T22:55:00.288Z,62.80
2017-11-15T22:57:27.845Z,63.23
2017-11-15T22:59:55.408Z,63.32
2017-11-15T23:02:22.985Z,63.31
2017-11-15T23:04:50.527Z,63.46
2017-11-15T23:07:18.087Z,63.17
2017-11-15T23:09:45.659Z,62.93
2017-11-15T23:12:13.201Z,62.82
2017-11-15T23:14:40.762Z,62.86
2017-11-15T23:17:08.627Z,63.21
2017-11-15T23:19:36.139Z,63.18
2017-11-15T23:22:03.647Z,63.45
2017-11-15T23:24:31.220Z,63.09
2017-11-15T23:26:58.865Z,63.44
2017-11-15T23:29:26.424Z,63.54
2017-11-15T23:31:53.994Z,63.69
2017-11-15T23:34:21.541Z,63.63
2017-11-15T23:36:49.117Z,64.35
2017-11-15T23:39:16.966Z,63.98
2017-11-15T23:41:44.524Z,63.82
2017-11-15T23:44:12.036Z,63.76
2017-11-15T23:46:39.764Z,64.51
2017-11-15T23:49:07.311Z,64.45
2017-11-15T23:51:34.819Z,64.16
2017-11-15T23:54:02.521Z,63.93
2017-11-15T23:56:30.089Z,63.80
2017-11-15T23:58:57.613Z,63.86
